Time;durP1;ratioP1;P1;durP2;ratioP2;P2;SDS_P1;SDS_P2;PMS_P1;PMS_P2;Temp;Humidity;BMP_temperature;BMP_pressure;BME280_temperature;BME280_humidity;BME280_pressure;Samples;Min_cycle;Max_cycle;Signal;HPM_P1;HPM_P2
2023/08/12 00:00:55;;;;;;;;;;;23.80;72.70;;;;;;5038004;28;19995;-76
2023/08/12 00:03:21;;;;;;;;;;;23.80;72.80;;;;;;5039135;28;19986;-76
2023/08/12 00:05:48;;;;;;;;;;;23.80;72.90;;;;;;5044430;28;20042;-76
2023/08/12 00:08:14;;;;;;;;;;;23.70;72.90;;;;;;5043089;28;19976;-74
2023/08/12 00:10:43;;;;;;;;;;;23.70;73.10;;;;;;5041526;28;19995;-76
2023/08/12 00:13:10;;;;;;;;;;;23.70;73.20;;;;;;5043170;28;20125;-76
2023/08/12 00:15:36;;;;;;;;;;;23.60;73.30;;;;;;5046178;28;20000;-76
2023/08/12 00:18:06;;;;;;;;;;;23.60;73.30;;;;;;5039844;28;20330;-76
2023/08/12 00:20:32;;;;;;;;;;;23.60;73.40;;;;;;5047081;28;19980;-76
2023/08/12 00:22:59;;;;;;;;;;;23.60;73.60;;;;;;5040850;28;19988;-76
2023/08/12 00:25:25;;;;;;;;;;;23.60;73.70;;;;;;5044491;28;19995;-76
2023/08/12 00:27:53;;;;;;;;;;;23.50;73.70;;;;;;5051046;28;19983;-76
2023/08/12 00:30:20;;;;;;;;;;;23.50;73.80;;;;;;5047935;28;19986;-76
2023/08/12 00:32:47;;;;;;;;;;;23.50;73.90;;;;;;5050613;28;19975;-76
2023/08/12 00:35:13;;;;;;;;;;;23.40;73.90;;;;;;5050990;28;20002;-76
2023/08/12 00:37:40;;;;;;;;;;;23.40;74.00;;;;;;5043984;28;19983;-76
2023/08/12 00:40:07;;;;;;;;;;;23.40;74.10;;;;;;5045885;28;19986;-76
2023/08/12 00:42:33;;;;;;;;;;;23.40;74.20;;;;;;5045586;28;19999;-76
2023/08/12 00:45:01;;;;;;;;;;;23.40;74.40;;;;;;5045580;28;19995;-76
2023/08/12 00:47:29;;;;;;;;;;;23.40;74.30;;;;;;5048170;28;19995;-76
2023/08/12 00:49:57;;;;;;;;;;;23.30;74.50;;;;;;5041743;28;19991;-76
2023/08/12 00:52:24;;;;;;;;;;;23.30;74.60;;;;;;5043933;28;20862;-75
2023/08/12 00:54:51;;;;;;;;;;;23.30;74.70;;;;;;5044614;28;19996;-76
2023/08/12 00:57:17;;;;;;;;;;;23.20;74.80;;;;;;5045618;28;19979;-75
2023/08/12 00:59:44;;;;;;;;;;;23.20;74.80;;;;;;5042338;28;20159;-76
2023/08/12 01:02:13;;;;;;;;;;;23.20;75.00;;;;;;5035995;28;19995;-76
2023/08/12 01:04:40;;;;;;;;;;;23.20;75.00;;;;;;5039892;28;19995;-76
2023/08/12 01:07:06;;;;;;;;;;;23.20;75.10;;;;;;5036749;28;19979;-75
2023/08/12 01:09:33;;;;;;;;;;;23.20;75.20;;;;;;5038731;28;19980;-76
2023/08/12 01:12:03;;;;;;;;;;;23.10;75.20;;;;;;5041039;28;19991;-76
2023/08/12 01:14:44;;;;;;;;;;;23.10;75.20;;;;;;5042398;28;20045;-76
2023/08/12 01:17:12;;;;;;;;;;;23.10;75.30;;;;;;5041199;28;20003;-76
2023/08/12 01:19:41;;;;;;;;;;;23.10;75.50;;;;;;5040996;28;20025;-76
2023/08/12 01:22:09;;;;;;;;;;;23.10;75.60;;;;;;5040189;28;20021;-76
2023/08/12 01:24:37;;;;;;;;;;;23.00;75.60;;;;;;5040741;28;19996;-77
2023/08/12 01:27:04;;;;;;;;;;;23.10;75.70;;;;;;5043611;28;19983;-76
2023/08/12 01:29:31;;;;;;;;;;;23.00;75.80;;;;;;5043181;28;19978;-76
2023/08/12 01:32:02;;;;;;;;;;;23.00;75.70;;;;;;5040209;28;19996;-76
2023/08/12 01:34:33;;;;;;;;;;;23.00;75.80;;;;;;5038486;28;19999;-75
2023/08/12 01:37:01;;;;;;;;;;;23.00;75.90;;;;;;5043912;28;20655;-76
2023/08/12 01:39:28;;;;;;;;;;;23.00;76.00;;;;;;5043194;28;19991;-76
2023/08/12 01:41:57;;;;;;;;;;;23.00;76.10;;;;;;5040691;28;20462;-76
2023/08/12 01:44:23;;;;;;;;;;;22.90;76.10;;;;;;5045757;28;20062;-76
2023/08/12 01:46:50;;;;;;;;;;;22.90;76.10;;;;;;5042618;28;19996;-76
2023/08/12 01:49:16;;;;;;;;;;;22.90;76.20;;;;;;5042495;28;20026;-76
2023/08/12 01:51:43;;;;;;;;;;;22.90;76.20;;;;;;5043116;28;19999;-76
2023/08/12 01:54:09;;;;;;;;;;;22.90;76.30;;;;;;5039404;28;21405;-76
2023/08/12 01:56:36;;;;;;;;;;;22.90;76.30;;;;;;5040910;28;20200;-77
2023/08/12 01:59:04;;;;;;;;;;;22.90;76.40;;;;;;5040689;28;19979;-76
2023/08/12 02:01:30;;;;;;;;;;;22.80;76.40;;;;;;5040533;28;19991;-76
2023/08/12 02:03:57;;;;;;;;;;;22.80;76.50;;;;;;5043181;28;20392;-76
2023/08/12 02:06:24;;;;;;;;;;;22.80;76.60;;;;;;5046537;28;20102;-74
2023/08/12 02:08:50;;;;;;;;;;;22.80;76.60;;;;;;5045316;28;19975;-77
2023/08/12 02:11:17;;;;;;;;;;;22.80;76.70;;;;;;5044341;28;19991;-76
2023/08/12 02:13:43;;;;;;;;;;;22.70;76.70;;;;;;5046840;28;19983;-77
2023/08/12 02:16:11;;;;;;;;;;;22.80;76.80;;;;;;5044007;28;20027;-76
2023/08/12 02:18:38;;;;;;;;;;;22.70;76.90;;;;;;5043942;28;19976;-76
2023/08/12 02:21:04;;;;;;;;;;;22.70;76.90;;;;;;5044267;28;20370;-76
2023/08/12 02:23:31;;;;;;;;;;;22.70;76.90;;;;;;5046115;28;19988;-76
2023/08/12 02:25:57;;;;;;;;;;;22.70;77.00;;;;;;5043483;28;19992;-77
2023/08/12 02:28:24;;;;;;;;;;;22.70;77.00;;;;;;5048470;28;19983;-76
2023/08/12 02:30:50;;;;;;;;;;;22.70;77.20;;;;;;5046124;28;19995;-76
2023/08/12 02:33:18;;;;;;;;;;;22.60;77.20;;;;;;5050313;28;19999;-76
2023/08/12 02:35:45;;;;;;;;;;;22.70;77.30;;;;;;5046389;28;19995;-76
2023/08/12 02:38:11;;;;;;;;;;;22.70;77.30;;;;;;5049096;28;19976;-76
2023/08/12 02:40:38;;;;;;;;;;;22.60;77.30;;;;;;5045964;28;19987;-75
2023/08/12 02:43:05;;;;;;;;;;;22.60;77.30;;;;;;5044802;28;20472;-76
2023/08/12 02:45:31;;;;;;;;;;;22.60;77.40;;;;;;5040315;28;19996;-75
2023/08/12 02:47:58;;;;;;;;;;;22.60;77.50;;;;;;5045909;28;19987;-76
2023/08/12 02:50:25;;;;;;;;;;;22.60;77.70;;;;;;5042308;28;19976;-76
2023/08/12 02:52:52;;;;;;;;;;;22.60;77.90;;;;;;5042114;28;20004;-76
2023/08/12 02:55:19;;;;;;;;;;;22.50;77.80;;;;;;5045211;28;20003;-76
2023/08/12 02:57:45;;;;;;;;;;;22.50;77.80;;;;;;5041940;28;19979;-76
2023/08/12 03:00:13;;;;;;;;;;;22.50;77.80;;;;;;5044482;28;19975;-76
2023/08/12 03:02:42;;;;;;;;;;;22.50;77.90;;;;;;5036858;28;20074;-76
2023/08/12 03:05:09;;;;;;;;;;;22.50;77.90;;;;;;5043333;28;19991;-76
2023/08/12 03:07:37;;;;;;;;;;;22.50;78.10;;;;;;5041040;28;19980;-75
2023/08/12 03:10:04;;;;;;;;;;;22.50;78.00;;;;;;5042699;28;20661;-76
2023/08/12 03:12:30;;;;;;;;;;;22.50;78.10;;;;;;5041751;28;20002;-76
2023/08/12 03:14:57;;;;;;;;;;;22.40;78.10;;;;;;5042812;28;20409;-76
2023/08/12 03:17:23;;;;;;;;;;;22.40;78.10;;;;;;5043346;28;20753;-75
2023/08/12 03:19:51;;;;;;;;;;;22.40;78.20;;;;;;5042790;28;20006;-76
2023/08/12 03:22:17;;;;;;;;;;;22.40;78.30;;;;;;5043925;28;20444;-76
2023/08/12 03:24:45;;;;;;;;;;;22.40;78.30;;;;;;5043530;28;20353;-75
2023/08/12 03:27:12;;;;;;;;;;;22.40;79.10;;;;;;5043530;28;19976;-76
2023/08/12 03:29:38;;;;;;;;;;;22.40;78.50;;;;;;5044696;28;19987;-76
2023/08/12 03:32:05;;;;;;;;;;;22.40;78.60;;;;;;5042903;28;20026;-76
2023/08/12 03:34:31;;;;;;;;;;;22.40;78.60;;;;;;5043500;28;19991;-76
2023/08/12 03:36:58;;;;;;;;;;;22.40;78.70;;;;;;5042531;28;19976;-76
2023/08/12 03:39:24;;;;;;;;;;;22.30;78.70;;;;;;5044705;28;20041;-76
2023/08/12 03:41:52;;;;;;;;;;;22.40;78.70;;;;;;5040373;28;19976;-76
2023/08/12 03:44:19;;;;;;;;;;;22.30;78.80;;;;;;5044440;28;19992;-75
2023/08/12 03:46:46;;;;;;;;;;;22.40;78.80;;;;;;5044152;28;20501;-76
2023/08/12 03:49:12;;;;;;;;;;;22.30;78.80;;;;;;5047105;28;20465;-76
2023/08/12 03:51:39;;;;;;;;;;;22.30;78.90;;;;;;5050622;28;20496;-74
2023/08/12 03:54:06;;;;;;;;;;;22.30;79.00;;;;;;5044768;28;20460;-76
2023/08/12 03:56:32;;;;;;;;;;;22.30;79.00;;;;;;5044438;28;19975;-75
2023/08/12 03:59:00;;;;;;;;;;;22.30;79.20;;;;;;5042342;28;19983;-76
2023/08/12 04:01:27;;;;;;;;;;;22.30;79.20;;;;;;5043689;28;19995;-76
2023/08/12 04:03:53;;;;;;;;;;;22.20;79.20;;;;;;5043646;28;19987;-76
2023/08/12 04:06:20;;;;;;;;;;;22.20;79.30;;;;;;5043678;28;19976;-76
2023/08/12 04:08:46;;;;;;;;;;;22.20;79.40;;;;;;5048784;28;20504;-76
2023/08/12 04:11:13;;;;;;;;;;;22.20;79.40;;;;;;5043877;28;20540;-76
2023/08/12 04:13:39;;;;;;;;;;;22.20;79.40;;;;;;5043796;28;20492;-76
2023/08/12 04:16:07;;;;;;;;;;;22.10;79.50;;;;;;5043417;28;19996;-76
2023/08/12 04:18:34;;;;;;;;;;;22.10;79.70;;;;;;5045895;28;19975;-76
2023/08/12 04:21:01;;;;;;;;;;;22.10;79.90;;;;;;5041392;28;19983;-76
2023/08/12 04:23:27;;;;;;;;;;;22.10;80.00;;;;;;5041639;28;19980;-76
2023/08/12 04:25:54;;;;;;;;;;;22.10;80.10;;;;;;5041526;28;20472;-76
2023/08/12 04:28:21;;;;;;;;;;;22.10;80.20;;;;;;5044978;28;20014;-75
2023/08/12 04:30:50;;;;;;;;;;;22.20;80.30;;;;;;5037579;28;20384;-76
2023/08/12 04:33:19;;;;;;;;;;;22.10;80.20;;;;;;5050576;28;20029;-75
2023/08/12 04:35:46;;;;;;;;;;;22.10;80.30;;;;;;5041950;28;20493;-75
2023/08/12 04:38:12;;;;;;;;;;;22.10;80.30;;;;;;5049424;28;20002;-73
2023/08/12 04:40:39;;;;;;;;;;;22.10;80.50;;;;;;5046596;28;20353;-76
2023/08/12 04:43:06;;;;;;;;;;;22.00;80.20;;;;;;5047198;28;19972;-76
2023/08/12 04:45:33;;;;;;;;;;;22.10;80.30;;;;;;5045749;28;19996;-76
2023/08/12 04:48:00;;;;;;;;;;;22.00;80.30;;;;;;5044437;28;19976;-76
2023/08/12 04:50:30;;;;;;;;;;;22.10;80.30;;;;;;5046785;28;20433;-76
2023/08/12 04:52:56;;;;;;;;;;;22.00;80.30;;;;;;5046843;28;19999;-76
2023/08/12 04:55:25;;;;;;;;;;;22.00;80.40;;;;;;5045943;28;19996;-76
2023/08/12 04:57:51;;;;;;;;;;;22.00;80.30;;;;;;5042809;28;19980;-76
2023/08/12 05:00:18;;;;;;;;;;;22.00;80.70;;;;;;5045550;28;20441;-74
2023/08/12 05:02:45;;;;;;;;;;;22.00;80.50;;;;;;5038750;28;20109;-75
2023/08/12 05:05:11;;;;;;;;;;;22.00;80.70;;;;;;5043078;28;20750;-76
2023/08/12 05:07:39;;;;;;;;;;;22.00;80.90;;;;;;5043622;28;19980;-76
2023/08/12 05:10:06;;;;;;;;;;;22.00;80.90;;;;;;5044227;28;20963;-76
2023/08/12 05:12:32;;;;;;;;;;;22.00;80.90;;;;;;5038986;28;19995;-76
2023/08/12 05:14:59;;;;;;;;;;;22.00;80.90;;;;;;5043248;28;20000;-76
2023/08/12 05:17:25;;;;;;;;;;;22.00;81.00;;;;;;5037512;28;20002;-76
2023/08/12 05:19:52;;;;;;;;;;;22.00;81.40;;;;;;5040775;28;19984;-76
2023/08/12 05:22:18;;;;;;;;;;;22.00;81.50;;;;;;5042061;28;20618;-75
2023/08/12 05:24:46;;;;;;;;;;;21.90;81.30;;;;;;5039968;28;20042;-75
2023/08/12 05:27:13;;;;;;;;;;;21.90;81.20;;;;;;5049405;28;19976;-76
2023/08/12 05:29:41;;;;;;;;;;;21.90;81.20;;;;;;5047559;28;19983;-75
2023/08/12 05:32:07;;;;;;;;;;;21.90;81.20;;;;;;5045673;28;19995;-75
2023/08/12 05:34:34;;;;;;;;;;;21.90;81.20;;;;;;5045119;28;19996;-76
2023/08/12 05:37:01;;;;;;;;;;;21.90;81.30;;;;;;5048495;28;19976;-76
2023/08/12 05:39:27;;;;;;;;;;;22.00;81.40;;;;;;5048119;28;19979;-76
2023/08/12 05:41:55;;;;;;;;;;;21.90;81.30;;;;;;5047589;28;19980;-76
2023/08/12 05:44:22;;;;;;;;;;;21.90;81.50;;;;;;5051025;28;20011;-75
2023/08/12 05:46:48;;;;;;;;;;;21.90;82.30;;;;;;5047565;28;19995;-76
2023/08/12 05:49:15;;;;;;;;;;;21.90;81.60;;;;;;5049767;28;22037;-76
2023/08/12 05:51:42;;;;;;;;;;;21.90;81.70;;;;;;5048068;28;19980;-76
2023/08/12 05:54:08;;;;;;;;;;;21.90;81.80;;;;;;5046057;28;20085;-76
2023/08/12 05:56:35;;;;;;;;;;;21.90;81.80;;;;;;5044594;28;19976;-73
2023/08/12 05:59:03;;;;;;;;;;;21.90;82.00;;;;;;5049761;28;19980;-76
2023/08/12 06:01:29;;;;;;;;;;;21.90;82.00;;;;;;5048680;28;20002;-76
2023/08/12 06:03:56;;;;;;;;;;;21.90;81.90;;;;;;5046039;28;19988;-76
2023/08/12 06:06:23;;;;;;;;;;;21.90;82.00;;;;;;5046652;28;19975;-76
2023/08/12 06:08:49;;;;;;;;;;;21.90;82.10;;;;;;5041451;28;19980;-76
2023/08/12 06:11:16;;;;;;;;;;;21.80;82.10;;;;;;5047530;28;19984;-76
2023/08/12 06:13:42;;;;;;;;;;;21.90;82.20;;;;;;5046036;28;19996;-76
2023/08/12 06:16:10;;;;;;;;;;;21.90;82.20;;;;;;5043972;28;20084;-76
2023/08/12 06:18:36;;;;;;;;;;;21.90;82.60;;;;;;5043361;28;19980;-76
2023/08/12 06:21:03;;;;;;;;;;;21.90;82.30;;;;;;5043694;28;19980;-77
2023/08/12 06:23:30;;;;;;;;;;;21.90;82.50;;;;;;5043097;28;20448;-76
2023/08/12 06:25:57;;;;;;;;;;;21.90;82.50;;;;;;5039140;28;20004;-76
2023/08/12 06:28:23;;;;;;;;;;;21.90;82.50;;;;;;5048071;28;20360;-76
2023/08/12 06:30:50;;;;;;;;;;;21.90;82.60;;;;;;5044766;28;20544;-76
2023/08/12 06:33:18;;;;;;;;;;;21.90;82.60;;;;;;5047308;28;19994;-75
2023/08/12 06:35:45;;;;;;;;;;;21.90;82.50;;;;;;5045658;28;19991;-75
2023/08/12 06:38:11;;;;;;;;;;;21.90;82.50;;;;;;5043032;28;20346;-76
2023/08/12 06:40:38;;;;;;;;;;;21.90;82.60;;;;;;5042120;28;20473;-76
2023/08/12 06:43:05;;;;;;;;;;;21.90;82.70;;;;;;5043765;28;19975;-75
2023/08/12 06:45:31;;;;;;;;;;;21.90;82.70;;;;;;5046500;28;19999;-76
2023/08/12 06:47:58;;;;;;;;;;;21.90;82.60;;;;;;5048671;28;20030;-76
2023/08/12 06:50:26;;;;;;;;;;;21.90;82.80;;;;;;5044807;28;19986;-76
2023/08/12 06:52:53;;;;;;;;;;;21.90;82.90;;;;;;5047403;28;19992;-76
2023/08/12 06:55:19;;;;;;;;;;;21.90;82.90;;;;;;5043343;28;19991;-76
2023/08/12 06:57:46;;;;;;;;;;;21.90;82.80;;;;;;5050735;28;20520;-75
2023/08/12 07:00:13;;;;;;;;;;;22.00;83.10;;;;;;5044879;28;20006;-75
2023/08/12 07:02:42;;;;;;;;;;;22.00;83.30;;;;;;5050523;28;19979;-76
2023/08/12 07:05:09;;;;;;;;;;;22.00;83.30;;;;;;5048943;28;20082;-76
2023/08/12 07:07:37;;;;;;;;;;;22.00;83.30;;;;;;5052185;28;19975;-75
2023/08/12 07:10:04;;;;;;;;;;;22.00;83.30;;;;;;5049569;28;19984;-76
2023/08/12 07:12:30;;;;;;;;;;;22.00;83.20;;;;;;5046881;28;20087;-76
2023/08/12 07:14:57;;;;;;;;;;;22.00;83.50;;;;;;5056522;28;20018;-76
2023/08/12 07:17:24;;;;;;;;;;;22.00;83.90;;;;;;5045721;28;19998;-75
2023/08/12 07:19:50;;;;;;;;;;;22.10;83.20;;;;;;5051646;28;19988;-76
2023/08/12 07:22:19;;;;;;;;;;;22.00;83.20;;;;;;5049914;28;19983;-76
2023/08/12 07:24:47;;;;;;;;;;;22.10;83.30;;;;;;5045877;28;19999;-76
2023/08/12 07:27:13;;;;;;;;;;;22.10;83.60;;;;;;5053033;28;19979;-76
2023/08/12 07:29:40;;;;;;;;;;;22.10;83.60;;;;;;5053181;28;20463;-76
2023/08/12 07:32:06;;;;;;;;;;;22.10;83.50;;;;;;5048419;28;20512;-77
2023/08/12 07:34:33;;;;;;;;;;;22.20;83.70;;;;;;5042592;28;19999;-76
2023/08/12 07:36:59;;;;;;;;;;;22.20;83.80;;;;;;5046948;28;19983;-76
2023/08/12 07:39:26;;;;;;;;;;;22.20;83.80;;;;;;5052729;28;20040;-76
2023/08/12 07:41:54;;;;;;;;;;;22.20;84.60;;;;;;5043436;28;20358;-76
2023/08/12 07:44:20;;;;;;;;;;;22.20;83.80;;;;;;5051130;28;20003;-76
2023/08/12 07:46:47;;;;;;;;;;;22.20;83.90;;;;;;5048265;28;20022;-76
2023/08/12 07:49:14;;;;;;;;;;;22.20;83.80;;;;;;5048809;28;19986;-75
2023/08/12 07:51:40;;;;;;;;;;;22.30;83.70;;;;;;5045962;28;20457;-76
2023/08/12 07:54:07;;;;;;;;;;;22.30;83.60;;;;;;5050431;28;20500;-76
2023/08/12 07:56:34;;;;;;;;;;;22.30;83.40;;;;;;5046602;28;20022;-76
2023/08/12 07:59:02;;;;;;;;;;;22.30;83.40;;;;;;5051247;28;19979;-75
2023/08/12 08:01:29;;;;;;;;;;;22.30;83.50;;;;;;5048152;28;20083;-76
2023/08/12 08:03:55;;;;;;;;;;;22.30;83.40;;;;;;5046999;28;19975;-76
2023/08/12 08:06:23;;;;;;;;;;;22.30;83.40;;;;;;5049386;28;19976;-76
2023/08/12 08:08:49;;;;;;;;;;;22.40;83.50;;;;;;5050242;28;19986;-74
2023/08/12 08:11:16;;;;;;;;;;;22.40;83.60;;;;;;5046230;28;19976;-76
2023/08/12 08:13:43;;;;;;;;;;;22.50;83.70;;;;;;5052826;28;19999;-76
2023/08/12 08:16:10;;;;;;;;;;;22.50;83.60;;;;;;5048354;28;20004;-76
2023/08/12 08:18:37;;;;;;;;;;;22.50;83.50;;;;;;5049097;28;19987;-77
2023/08/12 08:21:04;;;;;;;;;;;22.50;83.30;;;;;;5044356;28;19979;-76
2023/08/12 08:32:41;;;;;;;;;;;22.70;83.80;;;;;;5033865;28;19986;-76
2023/08/12 08:35:08;;;;;;;;;;;22.70;84.00;;;;;;5049785;28;20002;-75
2023/08/12 08:37:34;;;;;;;;;;;22.80;84.20;;;;;;5048374;28;19982;-77
2023/08/12 08:40:01;;;;;;;;;;;22.80;84.20;;;;;;5042547;28;19975;-77
2023/08/12 08:42:28;;;;;;;;;;;22.80;84.10;;;;;;5041201;28;19986;-77
2023/08/12 08:44:57;;;;;;;;;;;22.80;83.90;;;;;;5045721;28;19995;-76
2023/08/12 08:47:26;;;;;;;;;;;22.90;83.80;;;;;;5049374;28;20373;-76
2023/08/12 08:49:55;;;;;;;;;;;22.90;83.70;;;;;;5046471;28;19983;-77
2023/08/12 08:52:22;;;;;;;;;;;23.00;83.70;;;;;;5046784;28;19983;-75
2023/08/12 08:57:53;;;;;;;;;;;23.10;83.60;;;;;;5033372;28;19978;-77
2023/08/12 09:00:20;;;;;;;;;;;23.10;83.40;;;;;;5044988;28;19979;-77
2023/08/12 09:02:47;;;;;;;;;;;23.10;83.50;;;;;;5041005;28;20007;-77
2023/08/12 09:05:15;;;;;;;;;;;23.20;83.60;;;;;;5043933;28;19995;-76
2023/08/12 09:07:43;;;;;;;;;;;23.20;83.60;;;;;;5048735;28;19980;-75
2023/08/12 09:10:10;;;;;;;;;;;23.30;83.80;;;;;;5049149;28;19986;-76
2023/08/12 09:12:37;;;;;;;;;;;23.40;83.70;;;;;;5037967;28;20450;-76
2023/08/12 09:15:06;;;;;;;;;;;23.40;83.50;;;;;;5048304;28;20006;-77
2023/08/12 09:17:32;;;;;;;;;;;23.40;83.40;;;;;;5048310;28;20469;-77
2023/08/12 09:19:59;;;;;;;;;;;23.50;83.30;;;;;;5046109;28;20070;-77
2023/08/12 09:22:27;;;;;;;;;;;23.60;83.20;;;;;;5048205;28;19982;-76
2023/08/12 09:24:56;;;;;;;;;;;23.60;83.10;;;;;;5046787;28;20500;-76
2023/08/12 09:27:23;;;;;;;;;;;23.70;82.80;;;;;;5043187;28;19980;-77
2023/08/12 09:29:50;;;;;;;;;;;23.70;82.70;;;;;;5048630;28;19990;-76
2023/08/12 09:32:18;;;;;;;;;;;23.80;82.50;;;;;;5025223;28;19993;-77
2023/08/12 09:34:48;;;;;;;;;;;23.90;82.30;;;;;;5014041;28;20000;-75
2023/08/12 09:37:15;;;;;;;;;;;24.00;81.90;;;;;;5013048;28;19976;-69
2023/08/12 09:39:43;;;;;;;;;;;24.00;81.60;;;;;;5018081;28;19980;-74
2023/08/12 09:42:10;;;;;;;;;;;24.10;81.40;;;;;;5016265;28;20070;-75
2023/08/12 09:44:36;;;;;;;;;;;24.10;81.00;;;;;;5015675;28;19999;-73
2023/08/12 09:47:03;;;;;;;;;;;24.20;81.00;;;;;;5015890;28;20006;-74
2023/08/12 09:49:29;;;;;;;;;;;24.20;80.80;;;;;;5016045;28;19983;-71
2023/08/12 09:51:56;;;;;;;;;;;24.30;80.70;;;;;;5017398;28;20504;-73
2023/08/12 09:54:24;;;;;;;;;;;24.30;80.50;;;;;;5016571;28;20010;-75
2023/08/12 09:56:56;;;;;;;;;;;24.40;81.20;;;;;;5015856;28;19984;-73
2023/08/12 09:59:23;;;;;;;;;;;24.50;80.30;;;;;;5015545;28;20405;-74
2023/08/12 10:01:50;;;;;;;;;;;24.50;80.00;;;;;;5013966;28;20003;-73
2023/08/12 10:04:18;;;;;;;;;;;24.60;80.80;;;;;;5015471;28;19992;-72
2023/08/12 10:06:45;;;;;;;;;;;24.50;79.70;;;;;;5016947;28;19986;-71
2023/08/12 10:09:12;;;;;;;;;;;24.60;79.60;;;;;;5016865;28;19980;-71
2023/08/12 10:11:39;;;;;;;;;;;24.70;79.40;;;;;;5018250;28;20102;-75
2023/08/12 10:14:09;;;;;;;;;;;24.70;79.40;;;;;;5020953;28;19995;-69
2023/08/12 10:16:36;;;;;;;;;;;24.80;79.30;;;;;;5016731;28;19998;-74
2023/08/12 10:19:03;;;;;;;;;;;24.90;79.00;;;;;;5021036;28;19980;-74
2023/08/12 10:21:29;;;;;;;;;;;24.90;78.80;;;;;;5021139;28;19976;-73
2023/08/12 10:23:58;;;;;;;;;;;25.00;78.60;;;;;;5019232;28;19976;-72
2023/08/12 10:26:25;;;;;;;;;;;25.00;78.20;;;;;;5021236;28;20445;-70
2023/08/12 10:28:51;;;;;;;;;;;25.10;78.10;;;;;;5018592;28;19991;-72
2023/08/12 10:40:30;;;;;;;;;;;25.40;77.40;;;;;;5014689;28;20022;-74
2023/08/12 10:42:57;;;;;;;;;;;25.40;77.20;;;;;;5020944;28;20082;-70
2023/08/12 10:45:23;;;;;;;;;;;25.50;77.20;;;;;;5019735;28;19991;-75
2023/08/12 10:50:55;;;;;;;;;;;25.60;77.00;;;;;;5013072;28;19983;-69
2023/08/12 10:53:22;;;;;;;;;;;25.70;76.70;;;;;;5018003;28;19980;-79
2023/08/12 10:55:50;;;;;;;;;;;25.70;76.60;;;;;;5019074;28;20000;-79
2023/08/12 10:58:25;;;;;;;;;;;25.80;76.30;;;;;;5020632;28;19976;-77
2023/08/12 11:00:54;;;;;;;;;;;25.90;76.20;;;;;;5042984;28;20026;-79
2023/08/12 11:03:21;;;;;;;;;;;25.90;76.10;;;;;;5040169;28;19980;-79
2023/08/12 11:05:47;;;;;;;;;;;26.00;76.30;;;;;;5036199;28;19998;-78
2023/08/12 11:08:14;;;;;;;;;;;26.00;76.10;;;;;;5045285;28;20230;-77
2023/08/12 11:10:42;;;;;;;;;;;26.00;76.10;;;;;;5044189;28;19984;-80
2023/08/12 11:13:10;;;;;;;;;;;26.00;76.10;;;;;;5041616;28;19980;-80
2023/08/12 11:15:37;;;;;;;;;;;26.00;76.00;;;;;;5039775;28;19996;-77
2023/08/12 11:18:04;;;;;;;;;;;26.00;75.90;;;;;;5041962;28;19984;-77
2023/08/12 11:54:59;;;;;;;;;;;25.80;81.30;;;;;;5011810;28;19999;-80
2023/08/12 12:00:29;;;;;;;;;;;25.80;81.70;;;;;;5007544;28;20698;-73
2023/08/12 12:02:56;;;;;;;;;;;25.80;81.90;;;;;;5014673;28;19984;-72
2023/08/12 12:05:24;;;;;;;;;;;25.80;82.20;;;;;;5016203;28;19992;-73
2023/08/12 12:07:51;;;;;;;;;;;25.90;82.10;;;;;;5016662;28;19991;-73
2023/08/12 12:10:21;;;;;;;;;;;25.90;82.20;;;;;;5017410;28;19979;-74
2023/08/12 12:12:48;;;;;;;;;;;25.90;82.40;;;;;;5016454;28;20029;-72
2023/08/12 12:15:15;;;;;;;;;;;25.90;82.40;;;;;;5014447;28;20979;-74
2023/08/12 12:17:42;;;;;;;;;;;25.90;82.30;;;;;;5014898;28;19976;-73
2023/08/12 12:20:11;;;;;;;;;;;25.90;82.40;;;;;;5016175;28;19980;-71
2023/08/12 12:22:38;;;;;;;;;;;26.00;82.50;;;;;;5015079;28;19980;-71
2023/08/12 12:25:07;;;;;;;;;;;26.00;82.30;;;;;;5012727;28;19996;-71
2023/08/12 12:27:35;;;;;;;;;;;26.00;82.40;;;;;;5014959;28;19980;-74
2023/08/12 12:30:01;;;;;;;;;;;26.00;82.40;;;;;;5014894;28;19991;-71
2023/08/12 12:32:29;;;;;;;;;;;26.10;82.50;;;;;;5017429;28;19999;-75
2023/08/12 12:34:55;;;;;;;;;;;26.10;82.90;;;;;;5015648;28;19996;-79
2023/08/12 12:37:22;;;;;;;;;;;26.20;82.70;;;;;;5017054;28;20145;-81
2023/08/12 12:39:48;;;;;;;;;;;26.20;82.20;;;;;;5014448;28;19983;-79
2023/08/12 12:42:15;;;;;;;;;;;26.30;81.70;;;;;;5017053;28;19980;-79
2023/08/12 12:44:43;;;;;;;;;;;26.30;81.30;;;;;;5014038;28;20007;-78
2023/08/12 12:47:12;;;;;;;;;;;26.30;81.00;;;;;;5014364;28;20008;-78
2023/08/12 12:49:38;;;;;;;;;;;26.40;80.90;;;;;;5015727;28;19980;-77
2023/08/12 12:52:05;;;;;;;;;;;26.40;80.90;;;;;;5041591;28;19979;-78
2023/08/12 12:54:31;;;;;;;;;;;26.40;80.60;;;;;;5025159;28;20000;-78
2023/08/12 12:56:58;;;;;;;;;;;26.40;80.70;;;;;;5016163;28;19987;-78
2023/08/12 12:59:25;;;;;;;;;;;26.50;80.80;;;;;;5016852;28;19979;-79
2023/08/12 13:01:52;;;;;;;;;;;26.50;80.70;;;;;;5014039;28;19991;-78
2023/08/12 13:04:19;;;;;;;;;;;26.50;80.40;;;;;;5017139;28;19992;-78
2023/08/12 13:06:46;;;;;;;;;;;26.50;80.20;;;;;;5018021;28;20006;-77
2023/08/12 13:09:12;;;;;;;;;;;26.60;80.00;;;;;;5017992;28;19979;-77
2023/08/12 13:11:39;;;;;;;;;;;26.60;80.10;;;;;;5017124;28;19980;-77
2023/08/12 13:14:05;;;;;;;;;;;26.70;80.00;;;;;;5016621;28;19986;-77
2023/08/12 13:16:32;;;;;;;;;;;26.70;79.70;;;;;;5017436;28;20000;-77
2023/08/12 13:19:00;;;;;;;;;;;26.80;79.50;;;;;;5015824;28;19986;-77
2023/08/12 13:21:27;;;;;;;;;;;26.90;79.10;;;;;;5015787;28;19981;-76
2023/08/12 13:23:55;;;;;;;;;;;26.90;78.80;;;;;;5014643;28;20067;-77
2023/08/12 13:26:21;;;;;;;;;;;27.00;78.40;;;;;;5015778;28;20054;-79
2023/08/12 13:28:48;;;;;;;;;;;27.00;78.30;;;;;;5016733;28;20006;-76
2023/08/12 13:31:15;;;;;;;;;;;27.00;77.90;;;;;;5013915;28;20081;-77
2023/08/12 13:33:41;;;;;;;;;;;27.10;77.70;;;;;;5016200;28;20265;-79
2023/08/12 13:36:09;;;;;;;;;;;27.10;77.40;;;;;;5016739;28;20003;-76
2023/08/12 13:38:36;;;;;;;;;;;27.10;77.10;;;;;;5017380;28;20532;-77
2023/08/12 13:41:03;;;;;;;;;;;27.10;77.00;;;;;;5015080;28;19980;-75
2023/08/12 13:43:30;;;;;;;;;;;27.10;77.00;;;;;;5014470;28;20457;-77
2023/08/12 13:45:56;;;;;;;;;;;27.10;77.00;;;;;;5013770;28;19999;-76
2023/08/12 13:48:23;;;;;;;;;;;27.20;77.00;;;;;;5019017;28;20408;-78
2023/08/12 13:50:52;;;;;;;;;;;27.20;76.80;;;;;;5020444;28;19976;-78
2023/08/12 13:53:20;;;;;;;;;;;27.20;76.80;;;;;;5018517;28;20194;-77
2023/08/12 13:55:47;;;;;;;;;;;27.20;76.70;;;;;;5019413;28;20928;-77
2023/08/12 13:58:13;;;;;;;;;;;27.20;76.60;;;;;;5020012;28;19986;-76
2023/08/12 14:00:40;;;;;;;;;;;27.20;76.60;;;;;;5029630;28;20007;-78
2023/08/12 14:03:07;;;;;;;;;;;27.20;76.70;;;;;;5043136;28;19986;-75
2023/08/12 14:05:33;;;;;;;;;;;27.20;76.60;;;;;;5043350;28;19991;-77
2023/08/12 14:08:00;;;;;;;;;;;27.20;76.40;;;;;;5043933;28;19976;-77
2023/08/12 14:10:28;;;;;;;;;;;27.20;76.40;;;;;;5046201;28;19976;-77
2023/08/12 14:12:54;;;;;;;;;;;27.30;76.40;;;;;;5048159;28;19983;-78
2023/08/12 14:15:21;;;;;;;;;;;27.30;76.20;;;;;;5039376;28;20032;-79
2023/08/12 14:17:47;;;;;;;;;;;27.40;76.10;;;;;;5045596;28;19982;-77
2023/08/12 14:20:15;;;;;;;;;;;27.40;75.90;;;;;;5045207;28;19979;-77
2023/08/12 14:22:43;;;;;;;;;;;27.40;75.70;;;;;;5043675;28;20027;-79
2023/08/12 14:25:10;;;;;;;;;;;27.40;75.50;;;;;;5042080;28;20557;-77
2023/08/12 14:27:38;;;;;;;;;;;27.40;75.40;;;;;;5045604;28;19976;-77
2023/08/12 14:30:05;;;;;;;;;;;27.40;75.20;;;;;;5044371;28;20429;-78
2023/08/12 14:32:32;;;;;;;;;;;27.40;75.20;;;;;;5040983;28;19991;-78
2023/08/12 14:34:58;;;;;;;;;;;27.40;75.10;;;;;;5044330;28;20087;-78
2023/08/12 14:37:25;;;;;;;;;;;27.40;75.20;;;;;;5044242;28;19984;-77
2023/08/12 14:39:52;;;;;;;;;;;27.40;75.20;;;;;;5046369;28;19983;-78
2023/08/12 14:42:18;;;;;;;;;;;27.30;75.20;;;;;;5052183;28;19974;-78
2023/08/12 14:44:46;;;;;;;;;;;27.30;75.40;;;;;;5040503;28;20003;-78
2023/08/12 14:47:13;;;;;;;;;;;27.20;75.60;;;;;;5043777;28;20582;-79
2023/08/12 14:49:39;;;;;;;;;;;27.20;75.90;;;;;;5046355;28;20468;-80
2023/08/12 14:52:06;;;;;;;;;;;27.10;76.00;;;;;;5045798;28;19983;-79
2023/08/12 14:54:32;;;;;;;;;;;27.10;76.60;;;;;;5045784;28;19991;-79
2023/08/12 14:56:59;;;;;;;;;;;27.10;77.00;;;;;;5044802;28;19991;-80
2023/08/12 14:59:25;;;;;;;;;;;27.00;77.60;;;;;;5046154;28;19984;-79
2023/08/12 15:01:53;;;;;;;;;;;27.00;78.40;;;;;;5049552;28;19995;-81
2023/08/12 15:04:20;;;;;;;;;;;26.90;78.80;;;;;;5050873;28;19992;-81
2023/08/12 15:06:46;;;;;;;;;;;27.00;79.40;;;;;;5050583;28;19991;-81
2023/08/12 15:09:13;;;;;;;;;;;26.90;80.20;;;;;;5048062;28;19976;-80
2023/08/12 15:11:40;;;;;;;;;;;26.90;80.80;;;;;;5048889;28;19987;-79
2023/08/12 15:14:06;;;;;;;;;;;26.90;81.30;;;;;;5049247;28;19979;-77
2023/08/12 15:16:33;;;;;;;;;;;26.80;87.50;;;;;;5041872;28;20492;-79